createdAt,value
2019-01-30T00:00:36.633Z,1001.28
2019-01-30T00:01:40.786Z,1001.28
2019-01-30T00:02:44.807Z,1001.29
2019-01-30T00:03:48.972Z,1001.27
2019-01-30T00:04:53.019Z,1001.28
2019-01-30T00:05:57.214Z,1001.32
2019-01-30T00:07:01.387Z,1001.33
2019-01-30T00:08:05.522Z,1001.32
2019-01-30T00:09:09.577Z,1001.31
2019-01-30T00:10:13.587Z,1001.33
2019-01-30T00:11:17.741Z,1001.31
2019-01-30T00:12:21.986Z,1001.28
2019-01-30T00:13:26.119Z,1001.29
2019-01-30T00:14:30.165Z,1001.30
2019-01-30T00:15:34.275Z,1001.28
2019-01-30T00:16:38.426Z,1001.30
2019-01-30T00:17:42.522Z,1001.30
2019-01-30T00:18:46.633Z,1001.31
2019-01-30T00:19:50.815Z,1001.26
2019-01-30T00:20:54.984Z,1001.25
2019-01-30T00:21:59.063Z,1001.25
2019-01-30T00:23:03.206Z,1001.25
2019-01-30T00:24:07.243Z,1001.23
2019-01-30T00:25:11.350Z,1001.21
2019-01-30T00:26:15.532Z,1001.20
2019-01-30T00:27:19.721Z,1001.20
2019-01-30T00:28:23.742Z,1001.22
2019-01-30T00:29:27.980Z,1001.21
2019-01-30T00:30:32.123Z,1001.20
2019-01-30T00:31:36.181Z,1001.22
2019-01-30T00:32:40.379Z,1001.23
2019-01-30T00:33:44.534Z,1001.23
2019-01-30T00:34:48.692Z,1001.23
2019-01-30T00:35:52.741Z,1001.25
2019-01-30T00:36:56.974Z,1001.23
2019-01-30T00:38:01.085Z,1001.24
2019-01-30T00:39:05.248Z,1001.25
2019-01-30T00:40:10.312Z,1001.24
2019-01-30T00:41:14.006Z,1001.21
2019-01-30T00:42:18.230Z,1001.21
2019-01-30T00:43:22.300Z,1001.18
2019-01-30T00:44:26.409Z,1001.17
2019-01-30T00:45:30.618Z,1001.18
2019-01-30T00:46:34.751Z,1001.16
2019-01-30T00:47:38.933Z,1001.17
2019-01-30T00:48:42.970Z,1001.18
2019-01-30T00:49:47.055Z,1001.16
2019-01-30T00:50:51.256Z,1001.17
2019-01-30T00:51:55.313Z,1001.16
2019-01-30T00:52:59.511Z,1001.17
2019-01-30T00:54:03.613Z,1001.18
2019-01-30T00:55:07.630Z,1001.21
2019-01-30T00:56:11.740Z,1001.23
2019-01-30T00:57:15.889Z,1001.19
2019-01-30T00:58:19.976Z,1001.19
2019-01-30T00:59:24.115Z,1001.20
2019-01-30T01:00:28.180Z,1001.19
2019-01-30T01:01:32.276Z,1001.21
2019-01-30T01:02:36.496Z,1001.19
2019-01-30T01:03:40.554Z,1001.15
2019-01-30T01:04:44.640Z,1001.20
2019-01-30T01:05:48.725Z,1001.19
2019-01-30T01:06:52.755Z,1001.17
2019-01-30T01:07:56.976Z,1001.16
2019-01-30T01:09:01.052Z,1001.16
2019-01-30T01:10:05.213Z,1001.13
2019-01-30T01:11:09.289Z,1001.08
2019-01-30T01:12:13.379Z,1001.11
2019-01-30T01:13:17.484Z,1001.13
2019-01-30T01:14:21.669Z,1001.15
2019-01-30T01:15:25.737Z,1001.15
2019-01-30T01:16:29.925Z,1001.13
2019-01-30T01:17:33.982Z,1001.13
2019-01-30T01:18:38.157Z,1001.12
2019-01-30T01:19:42.189Z,1001.10
2019-01-30T01:20:46.292Z,1001.14
2019-01-30T01:21:50.430Z,1001.14
2019-01-30T01:22:54.665Z,1001.11
2019-01-30T01:23:58.699Z,1001.14
2019-01-30T01:25:02.817Z,1001.15
2019-01-30T01:26:06.908Z,1001.16
2019-01-30T01:27:11.098Z,1001.20
2019-01-30T01:28:15.277Z,1001.19
2019-01-30T01:29:19.304Z,1001.15
2019-01-30T01:30:25.156Z,1001.12
2019-01-30T01:31:27.620Z,1001.10
2019-01-30T01:32:31.698Z,1001.12
2019-01-30T01:33:35.894Z,1001.14
2019-01-30T01:34:40.019Z,1001.13
2019-01-30T01:35:44.153Z,1001.11
2019-01-30T01:36:48.305Z,1001.09
2019-01-30T01:37:52.404Z,1001.10
2019-01-30T01:38:56.613Z,1001.08
2019-01-30T01:40:00.659Z,1001.06
2019-01-30T01:41:04.774Z,1001.06
2019-01-30T01:42:08.892Z,1001.05
2019-01-30T01:43:13.029Z,1001.01
2019-01-30T01:44:17.112Z,1001.01
2019-01-30T01:45:21.277Z,1001.03
2019-01-30T01:46:25.361Z,1001.01
2019-01-30T01:47:29.452Z,1001.00
2019-01-30T01:48:33.566Z,1001.02
2019-01-30T01:49:37.679Z,1001.01
2019-01-30T01:50:41.775Z,1001.02
2019-01-30T01:51:45.983Z,1001.01
2019-01-30T01:52:50.067Z,1001.01
2019-01-30T01:53:54.278Z,1001.01
2019-01-30T01:54:58.417Z,1001.02
2019-01-30T01:56:02.523Z,1001.01
2019-01-30T01:57:06.677Z,1001.01
2019-01-30T01:58:10.749Z,1001.04
2019-01-30T01:59:14.927Z,1001.02
2019-01-30T02:00:19.062Z,1001.01
2019-01-30T02:01:23.091Z,1001.03
2019-01-30T02:02:27.193Z,1000.98
2019-01-30T02:03:31.294Z,1000.99
2019-01-30T02:04:35.379Z,1000.99
2019-01-30T02:05:39.478Z,1000.98
2019-01-30T02:06:43.679Z,1001.00
2019-01-30T02:07:47.704Z,1000.98
2019-01-30T02:08:51.826Z,1000.96
2019-01-30T02:09:55.996Z,1000.96
2019-01-30T02:11:00.162Z,1000.95
2019-01-30T02:12:04.316Z,1000.93
2019-01-30T02:13:08.470Z,1000.94
2019-01-30T02:14:12.597Z,1000.91
2019-01-30T02:15:16.657Z,1000.89
2019-01-30T02:16:20.766Z,1000.90
2019-01-30T02:17:24.968Z,1000.88
2019-01-30T02:18:29.034Z,1000.88
2019-01-30T02:19:33.231Z,1000.88
2019-01-30T02:20:37.287Z,1000.87
2019-01-30T02:21:41.418Z,1000.88
2019-01-30T02:22:45.655Z,1000.87
2019-01-30T02:23:52.819Z,1000.85
2019-01-30T02:24:55.937Z,1000.82
2019-01-30T02:26:00.050Z,1000.80
2019-01-30T02:27:04.281Z,1000.79
2019-01-30T02:28:08.530Z,1000.78
2019-01-30T02:29:12.487Z,1000.78
2019-01-30T02:30:16.686Z,1000.80
2019-01-30T02:31:20.829Z,1000.78
2019-01-30T02:32:24.900Z,1000.77
2019-01-30T02:33:29.063Z,1000.75
2019-01-30T02:34:33.229Z,1000.74
2019-01-30T02:35:37.335Z,1000.74
2019-01-30T02:36:41.531Z,1000.75
2019-01-30T02:37:45.556Z,1000.74
2019-01-30T02:38:49.795Z,1000.77
2019-01-30T02:39:53.930Z,1000.73
2019-01-30T02:40:58.203Z,1000.69
2019-01-30T02:42:02.231Z,1000.70
2019-01-30T02:43:06.519Z,1000.69
2019-01-30T02:44:10.609Z,1000.70
2019-01-30T02:45:14.661Z,1000.70
2019-01-30T02:46:18.755Z,1000.70
2019-01-30T02:47:22.924Z,1000.67
2019-01-30T02:48:26.985Z,1000.69
2019-01-30T02:49:31.166Z,1000.67
2019-01-30T02:50:35.321Z,1000.66
2019-01-30T02:51:39.433Z,1000.68
2019-01-30T02:52:43.591Z,1000.67
2019-01-30T02:53:47.732Z,1000.64
2019-01-30T02:54:51.869Z,1000.64
2019-01-30T02:55:55.879Z,1000.65
2019-01-30T02:57:00.067Z,1000.68
2019-01-30T02:58:04.139Z,1000.64
2019-01-30T02:59:08.346Z,1000.64
2019-01-30T03:00:12.503Z,1000.65
2019-01-30T03:01:16.654Z,1000.64
2019-01-30T03:02:20.792Z,1000.62
2019-01-30T03:03:24.856Z,1000.63
2019-01-30T03:04:29.013Z,1000.62
2019-01-30T03:05:33.038Z,1000.63
2019-01-30T03:06:37.191Z,1000.65
2019-01-30T03:07:41.312Z,1000.65
2019-01-30T03:08:45.408Z,1000.65
2019-01-30T03:09:49.564Z,1000.64
2019-01-30T03:10:53.753Z,1000.64
2019-01-30T03:11:57.800Z,1000.66
2019-01-30T03:13:01.938Z,1000.65
2019-01-30T03:14:06.056Z,1000.64
2019-01-30T03:15:10.320Z,1000.66
2019-01-30T03:16:14.435Z,1000.63
2019-01-30T03:17:18.574Z,1000.64
2019-01-30T03:18:22.727Z,1000.65
2019-01-30T03:19:26.906Z,1000.64
2019-01-30T03:20:30.943Z,1000.64
2019-01-30T03:21:35.061Z,1000.63
2019-01-30T03:22:39.171Z,1000.66
2019-01-30T03:23:43.270Z,1000.64
2019-01-30T03:24:47.420Z,1000.65
2019-01-30T03:25:51.613Z,1000.65
2019-01-30T03:26:55.766Z,1000.64
2019-01-30T03:27:59.871Z,1000.67
2019-01-30T03:29:04.037Z,1000.70
2019-01-30T03:30:08.196Z,1000.70
2019-01-30T03:31:18.007Z,1000.69
2019-01-30T03:32:16.445Z,1000.68
2019-01-30T03:33:20.631Z,1000.66
2019-01-30T03:34:24.678Z,1000.65
2019-01-30T03:35:28.930Z,1000.66
2019-01-30T03:36:32.913Z,1000.66
2019-01-30T03:37:37.146Z,1000.64
2019-01-30T03:38:41.199Z,1000.67
2019-01-30T03:39:45.295Z,1000.67
2019-01-30T03:40:49.384Z,1000.68
2019-01-30T03:41:53.509Z,1000.68
2019-01-30T03:42:57.598Z,1000.68
2019-01-30T03:44:01.773Z,1000.68
2019-01-30T03:45:05.848Z,1000.66
2019-01-30T03:46:09.951Z,1000.66
2019-01-30T03:47:14.056Z,1000.66
2019-01-30T03:48:18.240Z,1000.67
2019-01-30T03:49:22.390Z,1000.70
2019-01-30T03:50:26.536Z,1000.68
2019-01-30T03:51:30.696Z,1000.65
2019-01-30T03:52:34.813Z,1000.65
2019-01-30T03:53:38.876Z,1000.66
2019-01-30T03:54:42.975Z,1000.62
2019-01-30T03:55:47.177Z,1000.63
2019-01-30T03:56:51.326Z,1000.65
2019-01-30T03:57:55.363Z,1000.63
2019-01-30T03:58:59.518Z,1000.63
2019-01-30T04:00:03.574Z,1000.61
2019-01-30T04:01:07.669Z,1000.58
2019-01-30T04:02:11.858Z,1000.60
2019-01-30T04:03:15.887Z,1000.56
2019-01-30T04:04:20.016Z,1000.57
2019-01-30T04:05:24.202Z,1000.56
2019-01-30T04:06:28.347Z,1000.58
2019-01-30T04:07:32.371Z,1000.58
2019-01-30T04:08:36.535Z,1000.57
2019-01-30T04:09:40.547Z,1000.59
2019-01-30T04:10:44.696Z,1000.57
2019-01-30T04:11:48.785Z,1000.58
2019-01-30T04:12:52.990Z,1000.56
2019-01-30T04:13:57.098Z,1000.55
2019-01-30T04:15:01.231Z,1000.55
2019-01-30T04:16:05.228Z,1000.58
2019-01-30T04:17:09.413Z,1000.57
2019-01-30T04:18:13.444Z,1000.54
2019-01-30T04:19:17.645Z,1000.53
2019-01-30T04:20:21.701Z,1000.55
2019-01-30T04:21:25.805Z,1000.53
2019-01-30T04:22:29.873Z,1000.52
2019-01-30T04:23:34.072Z,1000.53
2019-01-30T04:24:38.143Z,1000.52
2019-01-30T04:25:42.201Z,1000.51
2019-01-30T04:26:46.292Z,1000.50
2019-01-30T04:27:50.495Z,1000.46
2019-01-30T04:28:54.543Z,1000.47
2019-01-30T04:29:58.622Z,1000.44
2019-01-30T04:31:02.622Z,1000.44
2019-01-30T04:32:06.882Z,1000.43
2019-01-30T04:33:10.968Z,1000.43
2019-01-30T04:34:14.995Z,1000.42
2019-01-30T04:35:20.100Z,1000.41
2019-01-30T04:36:23.896Z,1000.41
2019-01-30T04:37:27.934Z,1000.40
2019-01-30T04:38:31.988Z,1000.41
2019-01-30T04:39:36.084Z,1000.41
2019-01-30T04:40:40.197Z,1000.43
2019-01-30T04:41:44.310Z,1000.39
2019-01-30T04:42:48.444Z,1000.36
2019-01-30T04:43:52.483Z,1000.36
2019-01-30T04:44:56.563Z,1000.38
2019-01-30T04:46:00.728Z,1000.39
2019-01-30T04:47:04.774Z,1000.41
2019-01-30T04:48:08.838Z,1000.39
2019-01-30T04:49:13.018Z,1000.37
2019-01-30T04:50:17.014Z,1000.37
2019-01-30T04:51:21.120Z,1000.37
2019-01-30T04:52:25.227Z,1000.36
2019-01-30T04:53:29.395Z,1000.34
2019-01-30T04:54:33.434Z,1000.36
2019-01-30T04:55:37.508Z,1000.33
2019-01-30T04:56:41.734Z,1000.33
2019-01-30T04:57:45.736Z,1000.32
2019-01-30T04:58:49.838Z,1000.32
2019-01-30T04:59:54.002Z,1000.31
2019-01-30T05:00:58.135Z,1000.32
2019-01-30T05:02:02.216Z,1000.32
2019-01-30T05:03:06.274Z,1000.32
2019-01-30T05:04:10.367Z,1000.31
2019-01-30T05:05:14.417Z,1000.30
2019-01-30T05:06:18.512Z,1000.29
2019-01-30T05:07:22.660Z,1000.29
2019-01-30T05:08:26.837Z,1000.29
2019-01-30T05:09:30.865Z,1000.29
2019-01-30T05:10:34.941Z,1000.27
2019-01-30T05:11:39.044Z,1000.27
2019-01-30T05:12:43.219Z,1000.27
2019-01-30T05:13:47.270Z,1000.28
2019-01-30T05:14:54.247Z,1000.26
2019-01-30T05:15:57.458Z,1000.25
2019-01-30T05:17:01.559Z,1000.24
2019-01-30T05:18:05.678Z,1000.24
2019-01-30T05:19:09.665Z,1000.24
2019-01-30T05:20:13.863Z,1000.23
2019-01-30T05:21:17.890Z,1000.25
2019-01-30T05:22:22.027Z,1000.26
2019-01-30T05:23:26.190Z,1000.25
2019-01-30T05:24:30.333Z,1000.27
2019-01-30T05:25:34.445Z,1000.28
2019-01-30T05:26:38.479Z,1000.25
2019-01-30T05:27:42.711Z,1000.26
2019-01-30T05:28:46.783Z,1000.27
2019-01-30T05:29:50.959Z,1000.28
2019-01-30T05:30:55.089Z,1000.27
2019-01-30T05:32:01.267Z,1000.27
2019-01-30T05:33:03.340Z,1000.25
2019-01-30T05:34:07.432Z,1000.26
2019-01-30T05:35:11.423Z,1000.26
2019-01-30T05:36:15.580Z,1000.26
2019-01-30T05:37:19.730Z,1000.25
2019-01-30T05:38:23.869Z,1000.27
2019-01-30T05:39:27.855Z,1000.28
2019-01-30T05:40:32.035Z,1000.27
2019-01-30T05:41:36.178Z,1000.29
2019-01-30T05:42:41.061Z,1000.28
2019-01-30T05:43:44.758Z,1000.27
2019-01-30T05:44:48.807Z,1000.31
2019-01-30T05:45:53.008Z,1000.33
2019-01-30T05:46:57.013Z,1000.34
2019-01-30T05:48:01.217Z,1000.34
2019-01-30T05:49:05.229Z,1000.35
2019-01-30T05:50:09.289Z,1000.38
2019-01-30T05:51:13.441Z,1000.39
2019-01-30T05:52:17.550Z,1000.40
2019-01-30T05:53:21.902Z,1000.39
2019-01-30T05:54:25.705Z,1000.39
2019-01-30T05:55:29.871Z,1000.38
2019-01-30T05:56:33.881Z,1000.39
2019-01-30T05:57:38.090Z,1000.42
2019-01-30T05:58:42.154Z,1000.42
2019-01-30T05:59:46.209Z,1000.44
2019-01-30T06:00:50.388Z,1000.44
2019-01-30T06:01:55.344Z,1000.48
2019-01-30T06:02:59.906Z,1000.48
2019-01-30T06:04:04.464Z,1000.50
2019-01-30T06:05:08.229Z,1000.49
2019-01-30T06:06:12.217Z,1000.52
2019-01-30T06:07:16.294Z,1000.51
2019-01-30T06:08:21.268Z,1000.52
2019-01-30T06:09:25.877Z,1000.52
2019-01-30T06:10:29.536Z,1000.51
2019-01-30T06:11:33.633Z,1000.49
2019-01-30T06:12:38.613Z,1000.49
2019-01-30T06:13:42.319Z,1000.47
2019-01-30T06:14:46.405Z,1000.49
2019-01-30T06:15:50.446Z,1000.46
2019-01-30T06:16:54.568Z,1000.47
2019-01-30T06:17:58.651Z,1000.48
2019-01-30T06:19:02.730Z,1000.49
2019-01-30T06:20:06.863Z,1000.50
2019-01-30T06:21:10.951Z,1000.50
2019-01-30T06:22:14.993Z,1000.51
2019-01-30T06:23:19.957Z,1000.51
2019-01-30T06:24:23.869Z,1000.51
2019-01-30T06:25:28.733Z,1000.52
2019-01-30T06:26:32.372Z,1000.53
2019-01-30T06:27:36.521Z,1000.54
2019-01-30T06:28:40.518Z,1000.53
2019-01-30T06:29:44.738Z,1000.54
2019-01-30T06:30:48.834Z,1000.51
2019-01-30T06:31:52.928Z,1000.54
2019-01-30T06:32:57.851Z,1000.58
2019-01-30T06:34:01.551Z,1000.57
2019-01-30T06:35:05.594Z,1000.58
2019-01-30T06:36:10.579Z,1000.59
2019-01-30T06:37:14.268Z,1000.59
2019-01-30T06:38:18.344Z,1000.60
2019-01-30T06:39:23.352Z,1000.60
2019-01-30T06:40:27.152Z,1000.60
2019-01-30T06:41:32.026Z,1000.61
2019-01-30T06:42:35.816Z,1000.61
2019-01-30T06:43:39.900Z,1000.61
2019-01-30T06:44:44.006Z,1000.61
2019-01-30T06:45:48.184Z,1000.58
2019-01-30T06:46:52.173Z,1000.60
2019-01-30T06:47:56.339Z,1000.59
2019-01-30T06:49:00.467Z,1000.62
2019-01-30T06:50:04.531Z,1000.64
2019-01-30T06:51:09.524Z,1000.65
2019-01-30T06:52:13.193Z,1000.66
2019-01-30T06:53:17.264Z,1000.68
2019-01-30T06:54:21.473Z,1000.68
2019-01-30T06:55:25.619Z,1000.66
2019-01-30T06:56:29.702Z,1000.64
2019-01-30T06:57:33.686Z,1000.67
2019-01-30T06:58:37.805Z,1000.66
2019-01-30T06:59:41.987Z,1000.64
2019-01-30T07:00:46.062Z,1000.64
2019-01-30T07:01:50.201Z,1000.63
2019-01-30T07:02:54.337Z,1000.61
2019-01-30T07:03:58.484Z,1000.62
2019-01-30T07:05:02.654Z,1000.63
2019-01-30T07:06:07.877Z,1000.60
2019-01-30T07:07:10.791Z,1000.62
2019-01-30T07:08:14.848Z,1000.60
2019-01-30T07:09:18.908Z,1000.60
2019-01-30T07:10:23.113Z,1000.57
2019-01-30T07:11:27.234Z,1000.56
2019-01-30T07:12:31.365Z,1000.56
2019-01-30T07:13:35.473Z,1000.55
2019-01-30T07:14:39.515Z,1000.56
2019-01-30T07:15:43.747Z,1000.57
2019-01-30T07:16:48.638Z,1000.57
2019-01-30T07:17:52.296Z,1000.59
2019-01-30T07:18:56.494Z,1000.59
2019-01-30T07:20:00.529Z,1000.57
2019-01-30T07:21:05.513Z,1000.59
2019-01-30T07:22:09.175Z,1000.57
2019-01-30T07:23:13.231Z,1000.57
2019-01-30T07:24:17.370Z,1000.58
2019-01-30T07:25:21.487Z,1000.56
2019-01-30T07:26:25.610Z,1000.55
2019-01-30T07:27:29.612Z,1000.58
2019-01-30T07:28:33.693Z,1000.57
2019-01-30T07:29:37.762Z,1000.57
2019-01-30T07:30:41.940Z,1000.57
2019-01-30T07:31:45.986Z,1000.57
2019-01-30T07:32:50.197Z,1000.55
2019-01-30T07:33:54.200Z,1000.55
2019-01-30T07:34:58.266Z,1000.54
2019-01-30T07:36:03.225Z,1000.56
2019-01-30T07:37:07.029Z,1000.58
2019-01-30T07:38:11.058Z,1000.58
2019-01-30T07:39:16.066Z,1000.57
2019-01-30T07:40:19.814Z,1000.61
2019-01-30T07:41:23.837Z,1000.62
2019-01-30T07:42:27.953Z,1000.62
2019-01-30T07:43:32.141Z,1000.62
2019-01-30T07:44:36.259Z,1000.62
2019-01-30T07:45:40.332Z,1000.59
2019-01-30T07:46:44.429Z,1000.61
2019-01-30T07:47:48.627Z,1000.59
2019-01-30T07:48:52.622Z,1000.61
2019-01-30T07:49:56.726Z,1000.57
2019-01-30T07:51:00.813Z,1000.58
2019-01-30T07:52:04.994Z,1000.58
2019-01-30T07:53:08.987Z,1000.59
2019-01-30T07:54:13.143Z,1000.59
2019-01-30T07:55:17.176Z,1000.62
2019-01-30T07:56:21.387Z,1000.62
2019-01-30T07:57:25.389Z,1000.64
2019-01-30T07:58:29.496Z,1000.64
2019-01-30T07:59:33.583Z,1000.65
2019-01-30T08:00:37.734Z,1000.65
2019-01-30T08:01:41.856Z,1000.66
2019-01-30T08:02:52.906Z,1000.68
2019-01-30T08:03:50.044Z,1000.68
2019-01-30T08:04:54.114Z,1000.69
2019-01-30T08:05:58.188Z,1000.68
2019-01-30T08:07:03.117Z,1000.71
2019-01-30T08:08:06.442Z,1000.70
2019-01-30T08:09:10.622Z,1000.71
2019-01-30T08:10:14.725Z,1000.75
2019-01-30T08:11:18.803Z,1000.74
2019-01-30T08:12:22.901Z,1000.79
2019-01-30T08:13:27.022Z,1000.80
2019-01-30T08:14:31.173Z,1000.79
2019-01-30T08:15:35.302Z,1000.83
2019-01-30T08:16:39.464Z,1000.81
2019-01-30T08:17:43.490Z,1000.83
2019-01-30T08:18:47.674Z,1000.82
2019-01-30T08:19:52.126Z,1000.82
2019-01-30T08:20:55.954Z,1000.82
2019-01-30T08:22:00.048Z,1000.83
2019-01-30T08:23:04.467Z,1000.81
2019-01-30T08:24:08.217Z,1000.84
2019-01-30T08:25:12.696Z,1000.84
2019-01-30T08:26:16.523Z,1000.87
2019-01-30T08:27:20.797Z,1000.89
2019-01-30T08:28:25.268Z,1000.86
2019-01-30T08:29:29.058Z,1000.87
2019-01-30T08:30:33.278Z,1000.87
2019-01-30T08:31:37.466Z,1000.88
2019-01-30T08:32:41.405Z,1000.88
2019-01-30T08:33:45.442Z,1000.86
2019-01-30T08:34:49.604Z,1000.86
2019-01-30T08:35:53.660Z,1000.87
2019-01-30T08:36:57.731Z,1000.86
2019-01-30T08:38:01.943Z,1000.87
2019-01-30T08:39:06.071Z,1000.85
2019-01-30T08:40:10.096Z,1000.84
2019-01-30T08:41:14.122Z,1000.85
2019-01-30T08:42:18.356Z,1000.83
2019-01-30T08:43:22.483Z,1000.83
2019-01-30T08:44:26.446Z,1000.88
2019-01-30T08:45:30.583Z,1000.81
2019-01-30T08:46:34.774Z,1000.81
2019-01-30T08:47:38.806Z,1000.81
2019-01-30T08:48:43.064Z,1000.83
2019-01-30T08:49:46.964Z,1000.83
2019-01-30T08:50:51.164Z,1000.85
2019-01-30T08:51:55.259Z,1000.84
2019-01-30T08:52:59.346Z,1000.87
2019-01-30T08:54:03.544Z,1000.86
2019-01-30T08:55:07.722Z,1000.90
2019-01-30T08:56:11.818Z,1000.86
2019-01-30T08:57:15.846Z,1000.88
2019-01-30T08:58:19.901Z,1000.88
2019-01-30T08:59:24.067Z,1000.89
2019-01-30T09:00:28.199Z,1000.89
2019-01-30T09:01:32.380Z,1000.88
2019-01-30T09:02:36.341Z,1000.90
2019-01-30T09:03:40.491Z,1000.90
2019-01-30T09:04:44.701Z,1000.91
2019-01-30T09:05:48.867Z,1000.90
2019-01-30T09:06:52.833Z,1000.89
2019-01-30T09:07:56.873Z,1000.95
2019-01-30T09:09:01.171Z,1000.92
2019-01-30T09:10:05.286Z,1000.96
2019-01-30T09:11:09.242Z,1000.89
2019-01-30T09:12:13.393Z,1000.93
2019-01-30T09:13:17.420Z,1000.91
2019-01-30T09:14:21.567Z,1000.91
2019-01-30T09:15:25.583Z,1000.89
2019-01-30T09:16:29.837Z,1000.89
2019-01-30T09:17:33.980Z,1000.92
2019-01-30T09:18:38.222Z,1000.91
2019-01-30T09:19:42.286Z,1000.94
2019-01-30T09:20:47.242Z,1000.93
2019-01-30T09:21:50.884Z,1000.93
2019-01-30T09:22:54.985Z,1000.92
2019-01-30T09:23:59.166Z,1000.93
2019-01-30T09:25:03.181Z,1000.91
2019-01-30T09:26:07.344Z,1000.88
2019-01-30T09:27:11.534Z,1000.88
2019-01-30T09:28:15.521Z,1000.88
2019-01-30T09:29:19.728Z,1000.86
2019-01-30T09:30:23.717Z,1000.85
2019-01-30T09:31:27.861Z,1000.85
2019-01-30T09:32:32.009Z,1000.84
2019-01-30T09:33:36.009Z,1000.83
2019-01-30T09:34:40.080Z,1000.83
2019-01-30T09:35:44.283Z,1000.83
2019-01-30T09:36:48.449Z,1000.85
2019-01-30T09:37:52.422Z,1000.83
2019-01-30T09:38:56.664Z,1000.82
2019-01-30T09:40:00.715Z,1000.79
2019-01-30T09:41:04.828Z,1000.78
2019-01-30T09:42:09.003Z,1000.80
2019-01-30T09:43:12.991Z,1000.80
2019-01-30T09:44:17.080Z,1000.76
2019-01-30T09:45:21.384Z,1000.78
2019-01-30T09:46:25.432Z,1000.75
2019-01-30T09:47:29.472Z,1000.74
2019-01-30T09:48:36.944Z,1000.74
2019-01-30T09:49:38.322Z,1000.75
2019-01-30T09:50:42.372Z,1000.74
2019-01-30T09:51:46.562Z,1000.79
2019-01-30T09:52:50.619Z,1000.77
2019-01-30T09:53:57.382Z,1000.75
2019-01-30T09:54:58.927Z,1000.80
2019-01-30T09:56:03.052Z,1000.77
2019-01-30T09:57:07.267Z,1000.77
2019-01-30T09:58:11.270Z,1000.76
2019-01-30T09:59:15.528Z,1000.78
2019-01-30T10:00:19.679Z,1000.78
2019-01-30T10:01:23.765Z,1000.77
2019-01-30T10:02:27.928Z,1000.79
2019-01-30T10:03:36.324Z,1000.75
2019-01-30T10:04:36.183Z,1000.75
2019-01-30T10:05:40.225Z,1000.73
2019-01-30T10:06:44.453Z,1000.71
2019-01-30T10:07:48.479Z,1000.69
2019-01-30T10:08:52.695Z,1000.68
2019-01-30T10:09:56.774Z,1000.66
2019-01-30T10:11:00.950Z,1000.66
2019-01-30T10:12:05.913Z,1000.62
2019-01-30T10:13:09.633Z,1000.64
2019-01-30T10:14:13.824Z,1000.59
2019-01-30T10:15:18.007Z,1000.63
2019-01-30T10:16:22.115Z,1000.60
2019-01-30T10:17:26.283Z,1000.58
2019-01-30T10:18:30.435Z,1000.56
2019-01-30T10:19:34.477Z,1000.51
2019-01-30T10:20:38.729Z,1000.50
2019-01-30T10:21:42.908Z,1000.49
2019-01-30T10:22:47.028Z,1000.50
2019-01-30T10:23:51.071Z,1000.48
2019-01-30T10:24:55.369Z,1000.48
2019-01-30T10:25:59.247Z,1000.46
2019-01-30T10:27:03.474Z,1000.45
2019-01-30T10:28:16.217Z,1000.44
2019-01-30T10:29:12.266Z,1000.45
2019-01-30T10:30:16.424Z,1000.48
2019-01-30T10:31:20.592Z,1000.43
2019-01-30T10:32:24.734Z,1000.44
2019-01-30T10:33:28.882Z,1000.43
2019-01-30T10:34:32.950Z,1000.44
2019-01-30T10:35:37.074Z,1000.40
2019-01-30T10:36:41.109Z,1000.40
2019-01-30T10:37:45.442Z,1000.38
2019-01-30T10:38:49.598Z,1000.38
2019-01-30T10:39:53.760Z,1000.38
2019-01-30T10:40:57.910Z,1000.34
2019-01-30T10:42:01.936Z,1000.35
2019-01-30T10:43:06.065Z,1000.36
2019-01-30T10:44:10.242Z,1000.35
2019-01-30T10:45:14.382Z,1000.33
2019-01-30T10:46:18.460Z,1000.33
2019-01-30T10:47:22.701Z,1000.34
2019-01-30T10:48:26.852Z,1000.32
2019-01-30T10:49:30.958Z,1000.32
2019-01-30T10:50:35.136Z,1000.31
2019-01-30T10:51:39.273Z,1000.27
2019-01-30T10:52:43.338Z,1000.32
2019-01-30T10:53:48.245Z,1000.31
2019-01-30T10:54:51.673Z,1000.25
2019-01-30T10:55:55.714Z,1000.25
2019-01-30T10:56:59.946Z,1000.22
2019-01-30T10:58:04.010Z,1000.23
2019-01-30T10:59:08.167Z,1000.22
2019-01-30T11:00:12.386Z,1000.23
2019-01-30T11:01:16.638Z,1000.24
2019-01-30T11:02:20.665Z,1000.21
2019-01-30T11:03:24.776Z,1000.20
2019-01-30T11:04:28.982Z,1000.22
2019-01-30T11:05:33.036Z,1000.21
2019-01-30T11:06:37.190Z,1000.20
2019-01-30T11:07:41.295Z,1000.18
2019-01-30T11:08:45.435Z,1000.15
2019-01-30T11:09:49.668Z,1000.15
2019-01-30T11:10:53.825Z,1000.15
2019-01-30T11:11:57.948Z,1000.13
2019-01-30T11:13:02.171Z,1000.14
2019-01-30T11:14:06.263Z,1000.13
2019-01-30T11:15:10.434Z,1000.10
2019-01-30T11:16:14.617Z,1000.11
2019-01-30T11:17:18.811Z,1000.09
2019-01-30T11:18:22.860Z,1000.08
2019-01-30T11:19:27.106Z,1000.05
2019-01-30T11:20:31.311Z,1000.07
2019-01-30T11:21:35.409Z,1000.06
2019-01-30T11:22:39.429Z,1000.04
2019-01-30T11:23:43.660Z,1000.07
2019-01-30T11:24:47.858Z,999.98
2019-01-30T11:25:51.993Z,999.98
2019-01-30T11:26:56.073Z,999.91
2019-01-30T11:28:00.341Z,999.94
2019-01-30T11:29:04.303Z,999.89
2019-01-30T11:30:08.602Z,999.91
2019-01-30T11:31:12.706Z,999.88
2019-01-30T11:32:16.865Z,999.89
2019-01-30T11:33:21.105Z,999.84
2019-01-30T11:34:25.184Z,999.81
2019-01-30T11:35:29.384Z,999.81
2019-01-30T11:36:33.578Z,999.80
2019-01-30T11:37:37.675Z,999.79
2019-01-30T11:38:41.784Z,999.77
2019-01-30T11:39:45.984Z,999.77
2019-01-30T11:40:50.152Z,999.78
2019-01-30T11:41:54.324Z,999.74
2019-01-30T11:42:58.544Z,999.71
2019-01-30T11:44:02.733Z,999.66
2019-01-30T11:45:06.844Z,999.63
2019-01-30T11:46:10.995Z,999.65
2019-01-30T11:47:15.197Z,999.60
2019-01-30T11:48:19.383Z,999.63
2019-01-30T11:49:23.534Z,999.63
2019-01-30T11:50:27.614Z,999.59
2019-01-30T11:51:31.815Z,999.62
2019-01-30T11:52:35.849Z,999.61
2019-01-30T11:53:39.977Z,999.61
2019-01-30T11:54:44.207Z,999.61
2019-01-30T11:55:48.286Z,999.59
2019-01-30T11:56:52.547Z,999.57
2019-01-30T11:57:56.620Z,999.57
2019-01-30T11:59:00.852Z,999.58
2019-01-30T12:00:04.938Z,999.59
2019-01-30T12:01:09.043Z,999.57
2019-01-30T12:02:13.308Z,999.59
2019-01-30T12:03:17.379Z,999.59
2019-01-30T12:04:21.566Z,999.56
2019-01-30T12:05:25.664Z,999.53
2019-01-30T12:06:29.925Z,999.56
2019-01-30T12:07:34.087Z,999.53
2019-01-30T12:08:38.279Z,999.51
2019-01-30T12:09:42.407Z,999.50
2019-01-30T12:10:46.487Z,999.49
2019-01-30T12:11:50.723Z,999.44
2019-01-30T12:12:54.813Z,999.50
2019-01-30T12:13:59.099Z,999.50
2019-01-30T12:15:03.164Z,999.46
2019-01-30T12:16:07.389Z,999.45
2019-01-30T12:17:11.516Z,999.45
2019-01-30T12:18:15.697Z,999.41
2019-01-30T12:19:19.924Z,999.43
2019-01-30T12:20:23.990Z,999.44
2019-01-30T12:21:28.114Z,999.40
2019-01-30T12:22:32.325Z,999.40
2019-01-30T12:23:36.352Z,999.39
2019-01-30T12:24:40.531Z,999.38
2019-01-30T12:25:44.764Z,999.39
2019-01-30T12:26:48.946Z,999.35
2019-01-30T12:27:52.941Z,999.37
2019-01-30T12:28:57.130Z,999.33
2019-01-30T12:30:01.255Z,999.33
2019-01-30T12:31:05.380Z,999.35
2019-01-30T12:32:09.619Z,999.29
2019-01-30T12:33:13.811Z,999.28
2019-01-30T12:34:27.830Z,999.26
2019-01-30T12:35:22.078Z,999.33
2019-01-30T12:36:26.324Z,999.32
2019-01-30T12:37:30.396Z,999.33
2019-01-30T12:38:34.639Z,999.30
2019-01-30T12:39:38.794Z,999.28
2019-01-30T12:40:42.977Z,999.28
2019-01-30T12:41:47.152Z,999.31
2019-01-30T12:42:51.151Z,999.29
2019-01-30T12:43:55.444Z,999.25
2019-01-30T12:44:59.511Z,999.27
2019-01-30T12:46:03.640Z,999.29
2019-01-30T12:47:07.860Z,999.30
2019-01-30T12:48:12.038Z,999.27
2019-01-30T12:49:16.243Z,999.23
2019-01-30T12:50:20.373Z,999.21
2019-01-30T12:51:24.461Z,999.23
2019-01-30T12:52:28.715Z,999.22
2019-01-30T12:53:34.751Z,999.18
2019-01-30T12:54:37.048Z,999.19
2019-01-30T12:55:41.092Z,999.14
2019-01-30T12:56:45.328Z,999.10
2019-01-30T12:57:49.492Z,999.10
2019-01-30T12:58:53.681Z,999.08